Kezdőlap
METAR-TAF:

METAR-TAF

Repülőterek :

Nashua, New Hampshire, Amerikai Egyesült Államok

földrajzi szélesség: 42-47N, földrajzi hosszúság: 071-31W, magasság: 61 m

Jelenlegi meteorológiai megfigyelések

A jelentés 56 perccel ezelõtt készült, 22:04 UTC
Kelet-délkeleti szél 4 kt
Hőmérséklet -8°C
Páratartalom 92%
Légköri nyomás 1024 hPa
Látótávolság: 2.4 km
Borult 1700 lábon
enyhe havazás, Párásság

METAR: KASH 182204Z 12004KT 1 1/2SM -SN BR OVC017 M08/M09 A3023 RMK AO2 PRESFR P0000

Idő: 18:00 (23:00 UTC)


TAF: hiányzik

Meteorológiai megfigyelések és előrejelzések több, mint 4000 repülőtéren (METAR és TAF jelentéseket).

A térképen piros és sárga pontok jelzik az elérhető meteorológiai állomásokat.

Mozgassa az egeret a pont fölött, hogy megjelenjen az állomás neve.

Azután kattintson az időjárási megfigyelések és előrejelzések megtekintéséhez.

A térkép megváltoztatása: kattintson a fekete keresztel jelölt zöld gombra ráközelítéshez, a vonallal jelölt zöld gombra távolításhoz, vagy a zöld nyilakra a szomszédos térképek eléréséhez.


METAR-TAF: